createdAt,value
2023-01-23T00:12:08.825Z,27.5278
2023-01-23T00:27:10.780Z,27.7327
2023-01-23T00:42:12.717Z,28.3889
2023-01-23T00:57:14.644Z,26.2736
2023-01-23T01:12:16.582Z,25.389
2023-01-23T01:27:18.501Z,25.818
2023-01-23T01:42:20.526Z,26.9521
2023-01-23T01:57:22.458Z,26.2086
2023-01-23T02:12:24.519Z,26.9818
2023-01-23T02:27:26.426Z,26.9007
2023-01-23T02:42:28.346Z,26.9657
2023-01-23T02:57:30.297Z,27.0926
2023-01-23T03:12:32.487Z,27.3427
2023-01-23T03:27:34.423Z,26.7354
2023-01-23T03:42:36.307Z,27.3526
2023-01-23T03:57:38.285Z,26.9855
2023-01-23T04:12:40.243Z,27.1675
2023-01-23T04:27:42.145Z,27.2356
2023-01-23T04:42:44.083Z,26.7224
2023-01-23T04:57:46.036Z,27.2195
2023-01-23T05:12:47.948Z,27.5278
2023-01-23T05:27:49.955Z,21.2197
2023-01-23T05:42:51.889Z,19.5743
2023-01-23T05:57:53.782Z,25.1284
2023-01-23T06:12:55.725Z,26.0749
2023-01-23T06:27:57.665Z,25.116
2023-01-23T06:42:59.561Z,25.4608
2023-01-23T06:58:01.446Z,25.7988
2023-01-23T07:13:03.475Z,25.1457
2023-01-23T07:28:05.472Z,25.7691
2023-01-23T07:43:07.422Z,25.6298
2023-01-23T07:58:09.326Z,25.9777
2023-01-23T08:13:11.226Z,25.8217
2023-01-23T08:28:13.144Z,26.1956
2023-01-23T08:43:15.134Z,26.1337
2023-01-23T08:58:17.054Z,26.1987
2023-01-23T09:13:19.048Z,26.3838
2023-01-23T09:28:20.944Z,26.3807
2023-01-23T09:43:22.922Z,26.3417
2023-01-23T09:58:24.899Z,26.3256
2023-01-23T10:13:26.847Z,26.1597
2023-01-23T10:28:28.832Z,26.3126
2023-01-23T10:43:30.760Z,26.9917
2023-01-23T10:58:32.714Z,26.364
2023-01-23T11:13:34.632Z,25.0869
2023-01-23T11:28:36.592Z,23.5232
2023-01-23T11:43:38.515Z,22.6132
2023-01-23T11:58:49.429Z,21.6803
2023-01-23T12:13:52.142Z,21.6834
2023-01-23T12:28:54.208Z,21.2798
2023-01-23T12:43:56.140Z,21.1436
2023-01-23T12:58:58.103Z,20.8087
2023-01-23T13:14:00.936Z,20.1717
2023-01-23T13:29:04.101Z,20.3048
2023-01-23T13:44:06.121Z,19.7817
2023-01-23T14:31:25.926Z,20.7171
2023-01-23T14:46:28.086Z,18.9522
2023-01-23T15:01:30.089Z,18.6111
2023-01-23T15:16:32.117Z,21.2959
2023-01-23T15:31:34.272Z,20.6459
2023-01-23T15:46:36.275Z,22.4399
2023-01-23T16:01:38.268Z,21.7088
2023-01-23T16:16:40.467Z,22.9407
2023-01-23T16:31:42.635Z,23.2979
2023-01-23T16:46:44.725Z,23.7467
2023-01-23T17:01:46.732Z,24.1039
2023-01-23T17:16:48.794Z,24.3738
2023-01-23T17:31:50.995Z,24.1695
2023-01-23T17:46:53.103Z,24.3645
2023-01-23T18:01:55.104Z,24.2017
2023-01-23T18:16:57.036Z,24.0395
2023-01-23T18:31:59.087Z,24.2184
2023-01-23T18:47:01.129Z,25.2881
2023-01-23T19:02:03.180Z,25.636
2023-01-23T19:17:05.154Z,26.5819
2023-01-23T19:32:07.354Z,26.1727
2023-01-23T19:47:09.312Z,26.9917
2023-01-23T20:02:11.354Z,27.1737
2023-01-23T20:17:13.490Z,27.7785
2023-01-23T20:32:15.584Z,25.3147
2023-01-23T20:47:17.526Z,25.038
2023-01-23T21:02:19.435Z,24.8851
2023-01-23T21:17:21.396Z,23.9169
2023-01-23T21:32:23.310Z,24.0011
2023-01-23T21:47:25.252Z,24.4499
2023-01-23T22:02:27.288Z,25.194
2023-01-23T22:17:29.274Z,25.636
2023-01-23T22:32:31.168Z,25.8341
2023-01-23T22:47:33.097Z,25.5512
2023-01-23T23:02:35.054Z,24.9111
2023-01-23T23:17:37.054Z,25.181
2023-01-23T23:32:39.005Z,25.1253
2023-01-23T23:47:40.903Z,25.0219
